sensor_id;sensor_type;location;lat;lon;timestamp;pressure;altitude;pressure_sealevel;temperature;humidity
65872;BME280;52653;50.080;21.992;2022-08-01T00:01:51;98760.38;;;16.32;90.66
65872;BME280;52653;50.080;21.992;2022-08-01T00:04:36;98760.20;;;16.28;90.62
65872;BME280;52653;50.080;21.992;2022-08-01T00:07:18;98762.55;;;16.27;91.17
65872;BME280;52653;50.080;21.992;2022-08-01T00:10:13;98763.67;;;16.25;91.23
65872;BME280;52653;50.080;21.992;2022-08-01T00:13:05;98768.15;;;16.23;91.31
65872;BME280;52653;50.080;21.992;2022-08-01T00:16:00;98764.91;;;16.20;91.58
65872;BME280;52653;50.080;21.992;2022-08-01T00:18:52;98764.42;;;16.19;91.65
65872;BME280;52653;50.080;21.992;2022-08-01T00:21:44;98764.98;;;16.18;91.61
65872;BME280;52653;50.080;21.992;2022-08-01T00:24:22;98764.51;;;16.17;91.74
65872;BME280;52653;50.080;21.992;2022-08-01T00:27:14;98768.55;;;16.17;91.82
65872;BME280;52653;50.080;21.992;2022-08-01T00:30:08;98772.75;;;16.18;91.97
65872;BME280;52653;50.080;21.992;2022-08-01T00:33:04;98773.77;;;16.15;91.84
65872;BME280;52653;50.080;21.992;2022-08-01T00:35:59;98773.41;;;16.15;91.92
65872;BME280;52653;50.080;21.992;2022-08-01T00:38:51;98769.01;;;16.15;91.93
65872;BME280;52653;50.080;21.992;2022-08-01T00:41:43;98766.86;;;16.10;91.97
65872;BME280;52653;50.080;21.992;2022-08-01T00:44:35;98765.16;;;16.09;92.16
65872;BME280;52653;50.080;21.992;2022-08-01T00:47:27;98761.39;;;16.10;92.34
65872;BME280;52653;50.080;21.992;2022-08-01T00:50:19;98766.45;;;16.11;92.29
65872;BME280;52653;50.080;21.992;2022-08-01T00:53:13;98768.66;;;16.14;92.27
65872;BME280;52653;50.080;21.992;2022-08-01T00:56:08;98771.25;;;16.16;91.96
65872;BME280;52653;50.080;21.992;2022-08-01T00:59:01;98766.74;;;16.18;92.02
65872;BME280;52653;50.080;21.992;2022-08-01T01:01:55;98765.18;;;16.17;91.61
65872;BME280;52653;50.080;21.992;2022-08-01T01:04:46;98765.57;;;16.21;91.89
65872;BME280;52653;50.080;21.992;2022-08-01T01:07:46;98764.67;;;16.22;91.82
65872;BME280;52653;50.080;21.992;2022-08-01T01:10:35;98763.14;;;16.20;91.76
65872;BME280;52653;50.080;21.992;2022-08-01T01:13:35;98759.73;;;16.21;92.00
65872;BME280;52653;50.080;21.992;2022-08-01T01:16:42;98758.34;;;16.20;91.74
65872;BME280;52653;50.080;21.992;2022-08-01T01:19:38;98756.30;;;16.18;91.99
65872;BME280;52653;50.080;21.992;2022-08-01T01:22:41;98753.95;;;16.20;91.88
65872;BME280;52653;50.080;21.992;2022-08-01T01:25:57;98756.12;;;16.18;91.78
65872;BME280;52653;50.080;21.992;2022-08-01T01:29:06;98758.64;;;16.17;91.82
65872;BME280;52653;50.080;21.992;2022-08-01T01:32:06;98756.07;;;16.15;91.74
65872;BME280;52653;50.080;21.992;2022-08-01T01:35:00;98755.30;;;16.17;91.99
65872;BME280;52653;50.080;21.992;2022-08-01T01:37:45;98756.59;;;16.16;92.12
65872;BME280;52653;50.080;21.992;2022-08-01T01:40:39;98756.42;;;16.15;92.31
65872;BME280;52653;50.080;21.992;2022-08-01T01:43:33;98762.44;;;16.15;92.18
65872;BME280;52653;50.080;21.992;2022-08-01T01:46:27;98761.36;;;16.15;92.20
65872;BME280;52653;50.080;21.992;2022-08-01T01:49:23;98762.52;;;16.12;92.00
65872;BME280;52653;50.080;21.992;2022-08-01T01:52:18;98766.95;;;16.13;92.19
65872;BME280;52653;50.080;21.992;2022-08-01T01:55:11;98767.10;;;16.14;92.40
65872;BME280;52653;50.080;21.992;2022-08-01T01:58:04;98766.97;;;16.12;92.31
65872;BME280;52653;50.080;21.992;2022-08-01T02:00:58;98764.41;;;16.10;92.22
65872;BME280;52653;50.080;21.992;2022-08-01T02:03:53;98765.20;;;16.12;92.63
65872;BME280;52653;50.080;21.992;2022-08-01T02:06:39;98766.30;;;16.11;92.37
65872;BME280;52653;50.080;21.992;2022-08-01T02:09:33;98772.67;;;16.11;92.44
65872;BME280;52653;50.080;21.992;2022-08-01T02:12:26;98775.95;;;16.13;92.50
65872;BME280;52653;50.080;21.992;2022-08-01T02:15:20;98777.84;;;16.15;92.30
65872;BME280;52653;50.080;21.992;2022-08-01T02:18:08;98779.45;;;16.14;91.95
65872;BME280;52653;50.080;21.992;2022-08-01T02:21:05;98774.70;;;16.14;91.80
65872;BME280;52653;50.080;21.992;2022-08-01T02:23:49;98776.13;;;16.13;91.88
65872;BME280;52653;50.080;21.992;2022-08-01T02:26:46;98781.27;;;16.13;91.65
65872;BME280;52653;50.080;21.992;2022-08-01T02:29:42;98780.19;;;16.14;91.78
65872;BME280;52653;50.080;21.992;2022-08-01T02:32:38;98779.96;;;16.15;91.62
65872;BME280;52653;50.080;21.992;2022-08-01T02:35:37;98777.55;;;16.14;91.58
65872;BME280;52653;50.080;21.992;2022-08-01T02:38:50;98775.91;;;16.14;91.70
65872;BME280;52653;50.080;21.992;2022-08-01T02:41:46;98779.69;;;16.17;91.91
65872;BME280;52653;50.080;21.992;2022-08-01T02:44:30;98783.83;;;16.16;91.81
65872;BME280;52653;50.080;21.992;2022-08-01T02:47:13;98781.06;;;16.09;91.80
65872;BME280;52653;50.080;21.992;2022-08-01T02:49:59;98781.92;;;16.05;91.93
65872;BME280;52653;50.080;21.992;2022-08-01T02:52:53;98786.90;;;16.04;92.20
65872;BME280;52653;50.080;21.992;2022-08-01T02:55:27;98788.79;;;16.02;92.32
65872;BME280;52653;50.080;21.992;2022-08-01T02:58:22;98787.77;;;15.99;92.28
65872;BME280;52653;50.080;21.992;2022-08-01T03:01:21;98791.85;;;16.00;92.45
65872;BME280;52653;50.080;21.992;2022-08-01T03:04:17;98801.21;;;16.01;92.34
65872;BME280;52653;50.080;21.992;2022-08-01T03:07:11;98801.06;;;16.05;92.62
65872;BME280;52653;50.080;21.992;2022-08-01T03:10:06;98801.97;;;16.08;92.27
65872;BME280;52653;50.080;21.992;2022-08-01T03:13:00;98804.14;;;16.11;92.17
65872;BME280;52653;50.080;21.992;2022-08-01T03:15:55;98802.60;;;16.10;91.93
65872;BME280;52653;50.080;21.992;2022-08-01T03:18:49;98803.09;;;16.12;92.03
65872;BME280;52653;50.080;21.992;2022-08-01T03:21:44;98804.63;;;16.13;91.95
65872;BME280;52653;50.080;21.992;2022-08-01T03:24:40;98803.77;;;16.12;91.81
65872;BME280;52653;50.080;21.992;2022-08-01T03:27:34;98804.44;;;16.13;92.19
65872;BME280;52653;50.080;21.992;2022-08-01T03:30:21;98804.86;;;16.16;92.03
65872;BME280;52653;50.080;21.992;2022-08-01T03:33:14;98809.20;;;16.14;91.51
65872;BME280;52653;50.080;21.992;2022-08-01T03:36:10;98809.50;;;16.15;91.83
65872;BME280;52653;50.080;21.992;2022-08-01T03:39:05;98806.67;;;16.20;91.85
65872;BME280;52653;50.080;21.992;2022-08-01T03:42:04;98809.21;;;16.23;91.69
65872;BME280;52653;50.080;21.992;2022-08-01T03:45:02;98809.66;;;16.25;91.75
65872;BME280;52653;50.080;21.992;2022-08-01T03:47:58;98809.05;;;16.28;91.62
65872;BME280;52653;50.080;21.992;2022-08-01T03:50:52;98807.48;;;16.27;91.15
65872;BME280;52653;50.080;21.992;2022-08-01T03:53:46;98807.32;;;16.27;91.43
65872;BME280;52653;50.080;21.992;2022-08-01T03:56:42;98810.63;;;16.32;91.37
65872;BME280;52653;50.080;21.992;2022-08-01T03:59:37;98809.59;;;16.36;91.36
65872;BME280;52653;50.080;21.992;2022-08-01T04:02:30;98817.31;;;16.43;91.33
65872;BME280;52653;50.080;21.992;2022-08-01T04:05:22;98817.36;;;16.46;90.86
65872;BME280;52653;50.080;21.992;2022-08-01T04:08:07;98821.97;;;16.46;90.61
65872;BME280;52653;50.080;21.992;2022-08-01T04:10:59;98821.27;;;16.46;90.58
65872;BME280;52653;50.080;21.992;2022-08-01T04:13:52;98827.48;;;16.45;90.69
65872;BME280;52653;50.080;21.992;2022-08-01T04:16:45;98828.92;;;16.50;90.61
65872;BME280;52653;50.080;21.992;2022-08-01T04:19:38;98831.64;;;16.53;90.52
65872;BME280;52653;50.080;21.992;2022-08-01T04:22:31;98830.45;;;16.56;90.35
65872;BME280;52653;50.080;21.992;2022-08-01T04:25:29;98834.51;;;16.57;90.03
65872;BME280;52653;50.080;21.992;2022-08-01T04:28:24;98832.48;;;16.49;89.77
65872;BME280;52653;50.080;21.992;2022-08-01T04:31:17;98830.96;;;16.47;90.22
65872;BME280;52653;50.080;21.992;2022-08-01T04:33:57;98833.55;;;16.49;90.16
65872;BME280;52653;50.080;21.992;2022-08-01T04:36:52;98835.33;;;16.49;90.06
65872;BME280;52653;50.080;21.992;2022-08-01T04:39:47;98837.77;;;16.49;90.10
65872;BME280;52653;50.080;21.992;2022-08-01T04:42:41;98838.58;;;16.47;89.96
65872;BME280;52653;50.080;21.992;2022-08-01T04:45:33;98835.98;;;16.50;90.19
65872;BME280;52653;50.080;21.992;2022-08-01T04:48:08;98834.37;;;16.51;90.14
65872;BME280;52653;50.080;21.992;2022-08-01T04:51:02;98835.36;;;16.53;89.95
65872;BME280;52653;50.080;21.992;2022-08-01T04:53:55;98835.00;;;16.53;89.61
65872;BME280;52653;50.080;21.992;2022-08-01T04:56:48;98836.23;;;16.58;89.68
65872;BME280;52653;50.080;21.992;2022-08-01T04:59:44;98842.46;;;16.57;89.03
65872;BME280;52653;50.080;21.992;2022-08-01T05:02:37;98843.36;;;16.52;88.94
65872;BME280;52653;50.080;21.992;2022-08-01T05:05:29;98839.34;;;16.56;89.07
65872;BME280;52653;50.080;21.992;2022-08-01T05:08:22;98840.59;;;16.59;88.62
65872;BME280;52653;50.080;21.992;2022-08-01T05:11:14;98842.40;;;16.73;88.68
65872;BME280;52653;50.080;21.992;2022-08-01T05:14:05;98840.27;;;16.96;88.48
65872;BME280;52653;50.080;21.992;2022-08-01T05:16:37;98841.56;;;17.21;88.01
65872;BME280;52653;50.080;21.992;2022-08-01T05:19:30;98841.23;;;17.38;86.88
65872;BME280;52653;50.080;21.992;2022-08-01T05:22:06;98843.78;;;17.45;86.30
65872;BME280;52653;50.080;21.992;2022-08-01T05:24:58;98845.26;;;17.44;85.56
65872;BME280;52653;50.080;21.992;2022-08-01T05:27:51;98848.87;;;17.38;85.16
65872;BME280;52653;50.080;21.992;2022-08-01T05:30:43;98853.72;;;17.36;85.42
65872;BME280;52653;50.080;21.992;2022-08-01T05:33:35;98854.35;;;17.30;85.29
65872;BME280;52653;50.080;21.992;2022-08-01T05:36:07;98854.75;;;17.28;85.62
65872;BME280;52653;50.080;21.992;2022-08-01T05:38:59;98852.63;;;17.20;85.58
65872;BME280;52653;50.080;21.992;2022-08-01T05:41:51;98849.69;;;17.18;86.00
65872;BME280;52653;50.080;21.992;2022-08-01T05:44:45;98851.97;;;17.14;85.97
65872;BME280;52653;50.080;21.992;2022-08-01T05:47:38;98854.74;;;17.16;86.23
65872;BME280;52653;50.080;21.992;2022-08-01T05:50:33;98858.64;;;17.16;86.31
65872;BME280;52653;50.080;21.992;2022-08-01T05:53:25;98862.77;;;17.14;86.66
65872;BME280;52653;50.080;21.992;2022-08-01T05:56:17;98866.94;;;17.12;86.57
65872;BME280;52653;50.080;21.992;2022-08-01T05:59:10;98865.15;;;17.12;86.71
65872;BME280;52653;50.080;21.992;2022-08-01T06:02:02;98866.07;;;17.11;87.00
65872;BME280;52653;50.080;21.992;2022-08-01T06:04:54;98869.77;;;17.12;87.07
65872;BME280;52653;50.080;21.992;2022-08-01T06:07:47;98870.27;;;17.12;86.96
65872;BME280;52653;50.080;21.992;2022-08-01T06:10:42;98873.05;;;17.10;87.40
65872;BME280;52653;50.080;21.992;2022-08-01T06:13:34;98873.19;;;17.11;87.72
65872;BME280;52653;50.080;21.992;2022-08-01T06:16:38;98875.37;;;17.13;87.64
65872;BME280;52653;50.080;21.992;2022-08-01T06:19:23;98874.77;;;17.15;87.65
65872;BME280;52653;50.080;21.992;2022-08-01T06:22:15;98882.86;;;17.17;87.73
65872;BME280;52653;50.080;21.992;2022-08-01T06:25:09;98879.90;;;17.16;87.29
65872;BME280;52653;50.080;21.992;2022-08-01T06:27:52;98883.73;;;17.17;87.47
65872;BME280;52653;50.080;21.992;2022-08-01T06:30:44;98884.00;;;17.15;87.29
65872;BME280;52653;50.080;21.992;2022-08-01T06:33:36;98886.10;;;17.16;87.28
65872;BME280;52653;50.080;21.992;2022-08-01T06:36:28;98882.73;;;17.21;87.06
65872;BME280;52653;50.080;21.992;2022-08-01T06:39:20;98884.86;;;17.29;87.31
65872;BME280;52653;50.080;21.992;2022-08-01T06:42:12;98889.13;;;17.37;86.64
65872;BME280;52653;50.080;21.992;2022-08-01T06:45:07;98891.90;;;17.39;86.33
65872;BME280;52653;50.080;21.992;2022-08-01T06:47:59;98897.10;;;17.33;86.08
65872;BME280;52653;50.080;21.992;2022-08-01T06:50:51;98896.73;;;17.20;86.29
65872;BME280;52653;50.080;21.992;2022-08-01T06:53:58;98901.77;;;17.14;86.60
65872;BME280;52653;50.080;21.992;2022-08-01T06:56:50;98904.92;;;17.06;86.45
65872;BME280;52653;50.080;21.992;2022-08-01T06:59:42;98905.30;;;17.10;86.87
65872;BME280;52653;50.080;21.992;2022-08-01T07:02:44;98910.55;;;17.21;86.89
65872;BME280;52653;50.080;21.992;2022-08-01T07:05:37;98911.21;;;17.30;86.66
65872;BME280;52653;50.080;21.992;2022-08-01T07:08:29;98915.94;;;17.41;86.36
65872;BME280;52653;50.080;21.992;2022-08-01T07:11:22;98912.85;;;17.51;86.13
65872;BME280;52653;50.080;21.992;2022-08-01T07:14:18;98917.35;;;17.58;85.30
65872;BME280;52653;50.080;21.992;2022-08-01T07:17:10;98917.56;;;17.67;85.06
65872;BME280;52653;50.080;21.992;2022-08-01T07:20:03;98919.60;;;17.74;84.38
65872;BME280;52653;50.080;21.992;2022-08-01T07:22:59;98921.91;;;17.78;83.98
65872;BME280;52653;50.080;21.992;2022-08-01T07:25:51;98925.56;;;17.88;83.59
65872;BME280;52653;50.080;21.992;2022-08-01T07:28:48;98928.81;;;18.07;83.51
65872;BME280;52653;50.080;21.992;2022-08-01T07:31:33;98930.86;;;18.38;82.33
65872;BME280;52653;50.080;21.992;2022-08-01T07:34:24;98931.06;;;18.70;81.15
65872;BME280;52653;50.080;21.992;2022-08-01T07:37:17;98933.88;;;19.06;80.57
65872;BME280;52653;50.080;21.992;2022-08-01T07:40:30;98930.48;;;19.25;78.25
65872;BME280;52653;50.080;21.992;2022-08-01T07:43:22;98929.58;;;19.32;77.94
65872;BME280;52653;50.080;21.992;2022-08-01T07:46:15;98932.40;;;19.29;77.21
65872;BME280;52653;50.080;21.992;2022-08-01T07:49:07;98931.93;;;19.21;76.58
65872;BME280;52653;50.080;21.992;2022-08-01T07:52:00;98936.32;;;19.22;77.71
65872;BME280;52653;50.080;21.992;2022-08-01T07:54:54;98933.42;;;19.26;77.46
65872;BME280;52653;50.080;21.992;2022-08-01T07:57:46;98937.12;;;19.20;76.95
65872;BME280;52653;50.080;21.992;2022-08-01T08:00:38;98936.36;;;19.36;77.87
65872;BME280;52653;50.080;21.992;2022-08-01T08:03:30;98935.66;;;19.65;77.02
65872;BME280;52653;50.080;21.992;2022-08-01T08:06:22;98934.61;;;19.97;76.91
65872;BME280;52653;50.080;21.992;2022-08-01T08:09:15;98935.15;;;20.11;74.92
65872;BME280;52653;50.080;21.992;2022-08-01T08:11:59;98942.66;;;20.11;73.38
65872;BME280;52653;50.080;21.992;2022-08-01T08:14:52;98946.02;;;20.18;73.43
65872;BME280;52653;50.080;21.992;2022-08-01T08:17:44;98946.89;;;20.29;73.07
65872;BME280;52653;50.080;21.992;2022-08-01T08:20:37;98954.05;;;20.49;72.81
65872;BME280;52653;50.080;21.992;2022-08-01T08:23:29;98956.52;;;20.74;71.16
65872;BME280;52653;50.080;21.992;2022-08-01T08:26:38;98957.77;;;21.00;71.04
65872;BME280;52653;50.080;21.992;2022-08-01T08:29:23;98958.36;;;21.19;70.30
65872;BME280;52653;50.080;21.992;2022-08-01T08:32:15;98955.48;;;21.52;69.70
65872;BME280;52653;50.080;21.992;2022-08-01T08:35:09;98956.54;;;21.83;67.16
65872;BME280;52653;50.080;21.992;2022-08-01T08:37:47;98959.94;;;21.95;66.74
65872;BME280;52653;50.080;21.992;2022-08-01T08:40:22;98958.99;;;22.12;66.42
65872;BME280;52653;50.080;21.992;2022-08-01T08:43:21;98958.70;;;22.23;65.89
65872;BME280;52653;50.080;21.992;2022-08-01T08:46:06;98957.69;;;22.31;65.85
65872;BME280;52653;50.080;21.992;2022-08-01T08:49:01;98958.29;;;22.36;65.27
65872;BME280;52653;50.080;21.992;2022-08-01T08:51:59;98958.73;;;22.46;64.68
65872;BME280;52653;50.080;21.992;2022-08-01T08:54:52;98959.63;;;22.58;64.03
65872;BME280;52653;50.080;21.992;2022-08-01T08:57:45;98962.64;;;22.82;63.49
65872;BME280;52653;50.080;21.992;2022-08-01T09:00:39;98968.13;;;23.00;62.29
65872;BME280;52653;50.080;21.992;2022-08-01T09:03:37;98971.35;;;23.09;61.22
65872;BME280;52653;50.080;21.992;2022-08-01T09:06:19;98968.02;;;23.19;61.93
65872;BME280;52653;50.080;21.992;2022-08-01T09:08:51;98970.11;;;23.34;61.25
65872;BME280;52653;50.080;21.992;2022-08-01T09:11:43;98971.66;;;23.40;59.44
65872;BME280;52653;50.080;21.992;2022-08-01T09:14:47;98974.20;;;23.46;59.55
65872;BME280;52653;50.080;21.992;2022-08-01T09:17:24;98969.29;;;23.66;59.13
65872;BME280;52653;50.080;21.992;2022-08-01T09:20:24;98979.51;;;23.58;56.04
65872;BME280;52653;50.080;21.992;2022-08-01T09:23:33;98981.90;;;23.43;56.53
65872;BME280;52653;50.080;21.992;2022-08-01T09:26:32;98982.02;;;23.52;56.55
65872;BME280;52653;50.080;21.992;2022-08-01T09:29:07;98977.71;;;23.64;57.21
65872;BME280;52653;50.080;21.992;2022-08-01T09:32:00;98974.88;;;23.74;56.90
65872;BME280;52653;50.080;21.992;2022-08-01T09:34:47;98973.71;;;23.81;57.05
65872;BME280;52653;50.080;21.992;2022-08-01T09:37:40;98979.89;;;23.85;56.56
65872;BME280;52653;50.080;21.992;2022-08-01T09:40:25;98977.23;;;23.79;56.60
65872;BME280;52653;50.080;21.992;2022-08-01T09:43:18;98976.29;;;23.72;55.39
65872;BME280;52653;50.080;21.992;2022-08-01T09:46:12;98977.85;;;23.78;55.18
65872;BME280;52653;50.080;21.992;2022-08-01T09:49:05;98972.65;;;23.89;55.65
65872;BME280;52653;50.080;21.992;2022-08-01T09:52:11;98971.44;;;24.13;55.00
65872;BME280;52653;50.080;21.992;2022-08-01T09:54:51;98963.78;;;24.25;54.01
65872;BME280;52653;50.080;21.992;2022-08-01T09:57:56;98965.88;;;24.18;54.21
65872;BME280;52653;50.080;21.992;2022-08-01T10:00:31;98957.30;;;24.15;55.50
65872;BME280;52653;50.080;21.992;2022-08-01T10:03:26;98954.67;;;24.27;54.86
65872;BME280;52653;50.080;21.992;2022-08-01T10:06:20;98957.95;;;24.40;53.68
65872;BME280;52653;50.080;21.992;2022-08-01T10:09:16;98959.55;;;24.67;53.29
65872;BME280;52653;50.080;21.992;2022-08-01T10:12:24;98955.48;;;24.58;53.59
65872;BME280;52653;50.080;21.992;2022-08-01T10:15:01;98950.81;;;24.58;51.54
65872;BME280;52653;50.080;21.992;2022-08-01T10:17:40;98960.38;;;24.49;49.01
65872;BME280;52653;50.080;21.992;2022-08-01T10:20:33;98959.66;;;24.23;47.86
65872;BME280;52653;50.080;21.992;2022-08-01T10:23:17;98955.52;;;24.23;48.76
65872;BME280;52653;50.080;21.992;2022-08-01T10:26:11;98952.88;;;24.35;49.17
65872;BME280;52653;50.080;21.992;2022-08-01T10:29:04;98952.05;;;24.50;50.50
65872;BME280;52653;50.080;21.992;2022-08-01T10:32:00;98951.04;;;24.65;50.47
65872;BME280;52653;50.080;21.992;2022-08-01T10:34:46;98956.05;;;24.70;48.81
65872;BME280;52653;50.080;21.992;2022-08-01T10:37:39;98953.05;;;24.62;49.72
65872;BME280;52653;50.080;21.992;2022-08-01T10:40:42;98954.75;;;24.58;50.54
65872;BME280;52653;50.080;21.992;2022-08-01T10:43:34;98956.62;;;24.51;49.69
65872;BME280;52653;50.080;21.992;2022-08-01T10:46:27;98957.68;;;24.47;49.75
65872;BME280;52653;50.080;21.992;2022-08-01T10:49:04;98959.23;;;24.29;52.40
65872;BME280;52653;50.080;21.992;2022-08-01T10:51:38;98957.33;;;24.15;54.23
65872;BME280;52653;50.080;21.992;2022-08-01T10:54:26;98963.70;;;24.08;55.21
65872;BME280;52653;50.080;21.992;2022-08-01T10:57:20;98965.41;;;23.85;54.68
65872;BME280;52653;50.080;21.992;2022-08-01T11:00:02;98966.48;;;23.63;55.76
65872;BME280;52653;50.080;21.992;2022-08-01T11:02:58;98968.00;;;23.56;56.31
65872;BME280;52653;50.080;21.992;2022-08-01T11:05:33;98972.48;;;23.53;55.86
65872;BME280;52653;50.080;21.992;2022-08-01T11:08:09;98973.95;;;23.50;55.28
65872;BME280;52653;50.080;21.992;2022-08-01T11:10:42;98968.89;;;23.50;55.47
65872;BME280;52653;50.080;21.992;2022-08-01T11:13:14;98965.23;;;23.60;55.73
65872;BME280;52653;50.080;21.992;2022-08-01T11:16:26;98966.00;;;23.68;55.67
65872;BME280;52653;50.080;21.992;2022-08-01T11:18:58;98963.86;;;23.68;55.05
65872;BME280;52653;50.080;21.992;2022-08-01T11:21:59;98962.12;;;23.67;54.74
65872;BME280;52653;50.080;21.992;2022-08-01T11:24:58;98960.38;;;23.71;55.09
65872;BME280;52653;50.080;21.992;2022-08-01T11:27:32;98955.23;;;23.71;53.76
65872;BME280;52653;50.080;21.992;2022-08-01T11:30:25;98953.11;;;23.70;52.76
65872;BME280;52653;50.080;21.992;2022-08-01T11:32:58;98955.20;;;23.82;51.84
65872;BME280;52653;50.080;21.992;2022-08-01T11:36:20;98949.81;;;23.82;50.89
65872;BME280;52653;50.080;21.992;2022-08-01T11:39:18;98951.05;;;23.82;50.32
65872;BME280;52653;50.080;21.992;2022-08-01T11:41:50;98949.45;;;23.85;51.28
65872;BME280;52653;50.080;21.992;2022-08-01T11:44:24;98940.98;;;23.91;52.68
65872;BME280;52653;50.080;21.992;2022-08-01T11:47:02;98943.95;;;23.95;52.23
65872;BME280;52653;50.080;21.992;2022-08-01T11:49:47;98940.23;;;23.99;51.68
65872;BME280;52653;50.080;21.992;2022-08-01T11:52:27;98942.77;;;24.04;52.37
65872;BME280;52653;50.080;21.992;2022-08-01T11:55:07;98937.31;;;24.11;52.30
65872;BME280;52653;50.080;21.992;2022-08-01T11:57:41;98934.67;;;24.18;52.23
65872;BME280;52653;50.080;21.992;2022-08-01T12:00:15;98935.06;;;24.34;52.04
65872;BME280;52653;50.080;21.992;2022-08-01T12:02:58;98934.66;;;24.45;51.16
65872;BME280;52653;50.080;21.992;2022-08-01T12:05:35;98936.25;;;24.61;51.66
65872;BME280;52653;50.080;21.992;2022-08-01T12:08:12;98938.34;;;24.72;51.09
65872;BME280;52653;50.080;21.992;2022-08-01T12:10:50;98933.36;;;24.86;50.86
65872;BME280;52653;50.080;21.992;2022-08-01T12:13:40;98942.59;;;25.01;50.53
65872;BME280;52653;50.080;21.992;2022-08-01T12:16:13;98936.68;;;25.04;50.96
65872;BME280;52653;50.080;21.992;2022-08-01T12:18:45;98936.14;;;25.01;51.08
65872;BME280;52653;50.080;21.992;2022-08-01T12:21:18;98937.89;;;24.96;49.37
65872;BME280;52653;50.080;21.992;2022-08-01T12:24:02;98937.94;;;24.95;48.89
65872;BME280;52653;50.080;21.992;2022-08-01T12:26:43;98936.63;;;24.94;49.46
65872;BME280;52653;50.080;21.992;2022-08-01T12:29:32;98932.02;;;25.04;50.01
65872;BME280;52653;50.080;21.992;2022-08-01T12:32:04;98929.89;;;25.11;48.92
65872;BME280;52653;50.080;21.992;2022-08-01T12:35:07;98924.31;;;25.11;49.20
65872;BME280;52653;50.080;21.992;2022-08-01T12:37:40;98920.83;;;25.29;50.66
65872;BME280;52653;50.080;21.992;2022-08-01T12:40:16;98920.45;;;25.46;49.86
65872;BME280;52653;50.080;21.992;2022-08-01T12:42:50;98921.31;;;25.49;49.76
65872;BME280;52653;50.080;21.992;2022-08-01T12:45:25;98923.13;;;25.54;48.67
65872;BME280;52653;50.080;21.992;2022-08-01T12:47:58;98918.20;;;25.62;48.74
65872;BME280;52653;50.080;21.992;2022-08-01T12:50:31;98922.74;;;25.67;47.84
65872;BME280;52653;50.080;21.992;2022-08-01T12:53:04;98920.02;;;25.64;46.98
65872;BME280;52653;50.080;21.992;2022-08-01T12:55:45;98915.19;;;25.67;47.62
65872;BME280;52653;50.080;21.992;2022-08-01T12:58:33;98922.84;;;25.73;48.36
65872;BME280;52653;50.080;21.992;2022-08-01T13:01:07;98921.09;;;25.91;48.65
65872;BME280;52653;50.080;21.992;2022-08-01T13:04:01;98920.60;;;26.07;47.95
65872;BME280;52653;50.080;21.992;2022-08-01T13:06:47;98918.96;;;26.10;47.24
65872;BME280;52653;50.080;21.992;2022-08-01T13:09:30;98915.11;;;26.09;46.20
65872;BME280;52653;50.080;21.992;2022-08-01T13:12:22;98914.89;;;26.14;45.82
65872;BME280;52653;50.080;21.992;2022-08-01T13:15:27;98908.73;;;26.12;45.93
65872;BME280;52653;50.080;21.992;2022-08-01T13:21:16;98907.80;;;26.03;45.20
65872;BME280;52653;50.080;21.992;2022-08-01T13:24:09;98903.70;;;26.00;44.62
65872;BME280;52653;50.080;21.992;2022-08-01T13:26:46;98902.51;;;25.90;45.56
65872;BME280;52653;50.080;21.992;2022-08-01T13:29:20;98900.91;;;25.80;46.50
65872;BME280;52653;50.080;21.992;2022-08-01T13:32:17;98903.52;;;25.91;46.44
65872;BME280;52653;50.080;21.992;2022-08-01T13:35:21;98908.21;;;26.05;46.30
65872;BME280;52653;50.080;21.992;2022-08-01T13:37:53;98910.96;;;26.06;45.64
65872;BME280;52653;50.080;21.992;2022-08-01T13:40:27;98910.88;;;26.14;46.27
65872;BME280;52653;50.080;21.992;2022-08-01T13:43:10;98911.10;;;26.26;45.66
65872;BME280;52653;50.080;21.992;2022-08-01T13:45:53;98907.13;;;26.31;45.33
65872;BME280;52653;50.080;21.992;2022-08-01T13:48:47;98909.02;;;26.41;45.39
65872;BME280;52653;50.080;21.992;2022-08-01T13:51:23;98906.18;;;26.50;45.88
65872;BME280;52653;50.080;21.992;2022-08-01T13:54:15;98904.19;;;26.61;45.60
65872;BME280;52653;50.080;21.992;2022-08-01T13:56:49;98908.33;;;26.71;45.28
65872;BME280;52653;50.080;21.992;2022-08-01T13:59:42;98914.58;;;26.69;44.15
65872;BME280;52653;50.080;21.992;2022-08-01T14:02:34;98913.52;;;26.66;44.34
65872;BME280;52653;50.080;21.992;2022-08-01T14:05:26;98909.85;;;26.77;45.22
65872;BME280;52653;50.080;21.992;2022-08-01T14:08:02;98910.92;;;26.72;44.07
65872;BME280;52653;50.080;21.992;2022-08-01T14:10:54;98917.04;;;26.61;45.01
65872;BME280;52653;50.080;21.992;2022-08-01T14:13:49;98921.73;;;26.42;44.53
65872;BME280;52653;50.080;21.992;2022-08-01T14:16:41;98922.19;;;26.46;45.81
65872;BME280;52653;50.080;21.992;2022-08-01T14:19:18;98916.08;;;26.57;45.35
65872;BME280;52653;50.080;21.992;2022-08-01T14:22:28;98915.91;;;26.69;45.10
65872;BME280;52653;50.080;21.992;2022-08-01T14:25:21;98920.24;;;26.77;45.24
65872;BME280;52653;50.080;21.992;2022-08-01T14:28:34;98914.25;;;26.78;44.76
65872;BME280;52653;50.080;21.992;2022-08-01T14:31:17;98919.88;;;26.79;44.88
65872;BME280;52653;50.080;21.992;2022-08-01T14:34:09;98921.88;;;26.97;44.54
65872;BME280;52653;50.080;21.992;2022-08-01T14:36:53;98917.30;;;27.23;44.69
65872;BME280;52653;50.080;21.992;2022-08-01T14:39:47;98916.80;;;27.38;44.01
65872;BME280;52653;50.080;21.992;2022-08-01T14:42:44;98917.50;;;27.49;43.26
65872;BME280;52653;50.080;21.992;2022-08-01T14:45:36;98924.09;;;27.60;43.66
65872;BME280;52653;50.080;21.992;2022-08-01T14:48:20;98924.66;;;27.68;43.40
65872;BME280;52653;50.080;21.992;2022-08-01T14:51:12;98926.48;;;27.66;43.55
65872;BME280;52653;50.080;21.992;2022-08-01T14:54:05;98927.36;;;27.68;43.00